Amity, Maine
Current Conditions -  °F | °C
As of 3:53 AM on Friday 24 Oct 2014 (Local Time) from KHUL Reporting Station
Light Rain Light Rain  
Wind Chill:   Ceiling: 400
Heat Index:   Visibility: 3mi
Dew Point:   Wind: 6mph
Humidity: 93%   Direction: 350°N
Pressure: 29.76"   Gusts: NA
Location:  45.8952°N, 67.8479°W
Report Text: KHUL 240753Z AUTO 35005KT 3SM -RA BR BKN004 OVC016 07/06 A2976 RMK AO2 SLP081 P0006 T00670056
Loading
Personal Weather Stations






























Interactive Weather Map
Tropical Storm Tracking
New forecast layout! Learn more

10-Day Weather Forecast

Advertisements
Track Severe Weather on mobile